Time;durP1;ratioP1;P1;durP2;ratioP2;P2;SDS_P1;SDS_P2;PMS_P1;PMS_P2;Temp;Humidity;BMP_temperature;BMP_pressure;BME280_temperature;BME280_humidity;BME280_pressure;Samples;Min_cycle;Max_cycle;Signal;HPM_P1;HPM_P2
2022/05/03 00:00:08;;;;;;;8.65;5.45;;;9.10;99.90;;;;;;5053215;28;20056;-59
2022/05/03 00:02:53;;;;;;;8.20;5.47;;;9.10;99.90;;;;;;5070040;28;20052;-60
2022/05/03 00:05:56;;;;;;;7.38;5.20;;;9.10;99.90;;;;;;5073526;28;20032;-60
2022/05/03 00:08:30;;;;;;;8.75;6.30;;;9.10;99.90;;;;;;5073461;28;20053;-60
2022/05/03 00:11:31;;;;;;;8.23;6.47;;;9.10;99.90;;;;;;5075086;28;20045;-59
2022/05/03 00:14:21;;;;;;;9.23;6.88;;;9.10;99.90;;;;;;5074953;28;20051;-60
2022/05/03 00:16:50;;;;;;;7.95;6.25;;;9.10;99.90;;;;;;5073483;28;20602;-61
2022/05/03 00:19:16;;;;;;;8.48;6.40;;;9.10;99.90;;;;;;5072948;28;20383;-59
2022/05/03 00:21:42;;;;;;;8.75;6.78;;;9.10;99.90;;;;;;5056920;28;20109;-60
2022/05/03 00:24:08;;;;;;;8.18;6.60;;;9.00;99.90;;;;;;5073927;28;20118;-60
2022/05/03 00:26:35;;;;;;;10.15;6.95;;;9.00;99.90;;;;;;5073661;28;20504;-60
2022/05/03 00:29:02;;;;;;;9.15;6.35;;;9.00;99.90;;;;;;5074076;28;20088;-64
2022/05/03 00:31:29;;;;;;;7.90;7.10;;;9.00;99.90;;;;;;5074494;28;20055;-59
2022/05/03 00:33:56;;;;;;;6.80;6.10;;;8.90;99.90;;;;;;5074003;28;20048;-60
2022/05/03 00:36:23;;;;;;;7.90;6.68;;;8.90;99.90;;;;;;5072456;28;20063;-60
2022/05/03 00:38:49;;;;;;;9.57;6.85;;;8.90;99.90;;;;;;5074279;28;20155;-58
2022/05/03 00:41:39;;;;;;;7.78;6.55;;;8.90;99.90;;;;;;5056268;28;20431;-59
2022/05/03 00:44:55;;;;;;;9.68;6.72;;;8.90;99.90;;;;;;5042297;28;20059;-61
2022/05/03 00:46:53;;;;;;;7.35;6.65;;;8.90;99.90;;;;;;5073044;28;20091;-59
2022/05/03 00:49:41;;;;;;;9.77;6.53;;;8.80;99.90;;;;;;5073800;28;20048;-57
2022/05/03 00:52:20;;;;;;;8.95;6.80;;;8.80;99.90;;;;;;5073517;28;20099;-58
2022/05/03 00:54:58;;;;;;;11.40;7.18;;;8.80;99.90;;;;;;5074278;28;20474;-59
2022/05/03 00:57:54;;;;;;;9.10;6.50;;;8.80;99.90;;;;;;5072799;28;20044;-59
2022/05/03 01:00:23;;;;;;;7.80;6.30;;;8.80;99.90;;;;;;5057148;28;20141;-60
2022/05/03 01:03:15;;;;;;;8.63;7.60;;;8.70;99.90;;;;;;5056662;28;20048;-59
2022/05/03 01:05:59;;;;;;;9.50;7.03;;;8.80;99.90;;;;;;5074089;28;20044;-59
2022/05/03 01:08:37;;;;;;;8.10;6.57;;;8.70;99.90;;;;;;5073663;28;20059;-58
2022/05/03 01:11:21;;;;;;;8.07;6.85;;;8.70;99.90;;;;;;5073612;28;20052;-59
2022/05/03 01:14:18;;;;;;;10.15;6.57;;;8.60;99.90;;;;;;5073710;28;20051;-58
2022/05/03 01:17:03;;;;;;;9.30;7.75;;;8.60;99.90;;;;;;5073310;28;20098;-58
2022/05/03 01:19:52;;;;;;;8.18;6.88;;;8.60;99.90;;;;;;5073270;28;20052;-58
2022/05/03 01:22:45;;;;;;;10.38;8.07;;;8.60;99.90;;;;;;5073155;28;20118;-57
2022/05/03 01:25:26;;;;;;;8.48;6.75;;;8.60;99.90;;;;;;5072854;28;20044;-59
2022/05/03 01:27:59;;;;;;;9.68;7.75;;;8.50;99.90;;;;;;5073400;28;20067;-59
2022/05/03 01:30:29;;;;;;;9.45;7.70;;;8.50;99.90;;;;;;5073137;28;20044;-59
2022/05/03 01:33:05;;;;;;;8.65;7.53;;;8.50;99.90;;;;;;5073638;28;20144;-59
2022/05/03 01:35:39;;;;;;;10.52;8.02;;;8.40;99.90;;;;;;5071570;28;20523;-58
2022/05/03 01:38:10;;;;;;;;;;;8.40;99.90;;;;;;5072763;28;20091;-58
2022/05/03 01:40:55;;;;;;;9.15;7.80;;;8.40;99.90;;;;;;5073107;28;20392;-59
2022/05/03 01:43:52;;;;;;;10.00;7.85;;;8.40;99.90;;;;;;5072562;28;20505;-57
2022/05/03 01:46:27;;;;;;;11.07;8.15;;;8.30;99.90;;;;;;5061574;28;20139;-58
2022/05/03 01:52:14;;;;;;;9.52;8.00;;;8.30;99.90;;;;;;5071492;28;20096;-59
2022/05/03 01:55:20;;;;;;;9.87;8.40;;;8.30;99.90;;;;;;5072572;28;20541;-59
2022/05/03 01:58:14;;;;;;;11.27;9.13;;;8.20;99.90;;;;;;5071895;28;20721;-60
2022/05/03 02:00:42;;;;;;;11.23;8.88;;;8.20;99.90;;;;;;5072080;28;20087;-59
2022/05/03 02:03:29;;;;;;;9.93;8.90;;;8.20;99.90;;;;;;5071662;28;20052;-59
2022/05/03 02:06:10;;;;;;;9.80;8.70;;;8.20;99.90;;;;;;5072995;28;20044;-59
2022/05/03 02:09:00;;;;;;;11.00;9.15;;;8.20;99.90;;;;;;5071405;28;20131;-59
2022/05/03 02:11:59;;;;;;;9.95;8.82;;;8.10;99.90;;;;;;5072331;28;20146;-59
2022/05/03 02:14:46;;;;;;;10.75;8.90;;;8.10;99.90;;;;;;5072184;28;20041;-60
2022/05/03 02:17:37;;;;;;;10.88;9.57;;;8.10;99.90;;;;;;5072788;28;20459;-59
2022/05/03 02:20:35;;;;;;;11.00;9.07;;;8.10;99.90;;;;;;5072746;28;20407;-59
2022/05/03 02:23:50;;;;;;;11.20;9.88;;;8.10;99.90;;;;;;5072484;28;20056;-58
2022/05/03 02:26:24;;;;;;;13.40;10.15;;;8.10;99.90;;;;;;5009497;28;20078;-63
2022/05/03 02:29:15;;;;;;;13.07;10.95;;;8.10;99.90;;;;;;5062449;28;20048;-60
2022/05/03 02:32:01;;;;;;;13.80;11.05;;;8.10;99.90;;;;;;5071589;28;20127;-60
2022/05/03 02:34:45;;;;;;;13.15;11.13;;;8.20;99.90;;;;;;5071621;28;20497;-59
2022/05/03 02:37:21;;;;;;;13.00;11.30;;;8.30;99.90;;;;;;5072198;28;20406;-59
2022/05/03 02:39:53;;;;;;;13.07;10.65;;;8.30;99.90;;;;;;5071171;28;20045;-59
2022/05/03 02:42:20;;;;;;;13.75;10.50;;;8.30;99.90;;;;;;5071750;28;20056;-61
2022/05/03 02:44:47;;;;;;;15.60;12.13;;;8.40;99.90;;;;;;5071305;28;20116;-60
2022/05/03 02:47:50;;;;;;;13.30;11.07;;;8.40;99.90;;;;;;5071781;28;20048;-59
2022/05/03 02:50:20;;;;;;;16.30;12.57;;;8.50;99.90;;;;;;5070668;28;20055;-60
2022/05/03 02:52:52;;;;;;;16.10;13.00;;;8.50;99.90;;;;;;5071225;28;20498;-60
2022/05/03 02:55:31;;;;;;;14.00;12.45;;;8.60;99.90;;;;;;5053628;28;20136;-63
2022/05/03 02:58:31;;;;;;;15.57;13.18;;;8.60;99.90;;;;;;5070684;28;20052;-59
2022/05/03 03:04:03;;;;;;;18.20;13.50;;;8.60;99.90;;;;;;5071671;28;20056;-61
2022/05/03 03:06:40;;;;;;;15.88;14.07;;;8.70;99.90;;;;;;5071429;28;20071;-59
2022/05/03 03:09:08;;;;;;;17.23;13.57;;;8.70;99.90;;;;;;5070550;28;20052;-57
2022/05/03 03:11:55;;;;;;;19.50;14.02;;;8.70;99.90;;;;;;5070438;28;20047;-58
2022/05/03 03:14:37;;;;;;;18.08;14.75;;;8.70;99.90;;;;;;5071112;28;20051;-62
2022/05/03 03:17:06;;;;;;;18.05;15.05;;;8.70;99.90;;;;;;5070296;28;20075;-58
2022/05/03 03:19:34;;;;;;;19.98;14.65;;;8.80;99.90;;;;;;5070733;28;20527;-58
2022/05/03 03:22:03;;;;;;;17.98;14.10;;;8.80;99.90;;;;;;5071337;28;20405;-58
2022/05/03 03:24:30;;;;;;;19.20;14.38;;;8.80;99.90;;;;;;5069752;28;20397;-57
2022/05/03 03:26:58;;;;;;;17.77;14.23;;;8.80;99.90;;;;;;5053392;28;20474;-59
2022/05/03 03:29:25;;;;;;;17.23;14.02;;;8.90;99.90;;;;;;5070799;28;20142;-63
2022/05/03 03:31:52;;;;;;;19.38;14.55;;;8.90;99.90;;;;;;5070125;28;20132;-58
2022/05/03 03:34:22;;;;;;;17.00;14.85;;;8.90;99.90;;;;;;5071142;28;20102;-58
2022/05/03 03:36:52;;;;;;;18.95;15.30;;;8.90;99.90;;;;;;5070934;28;20048;-60
2022/05/03 03:39:18;;;;;;;21.50;16.23;;;8.90;99.90;;;;;;5069389;28;20132;-59
2022/05/03 03:41:47;;;;;;;21.98;16.33;;;8.90;99.90;;;;;;5068974;28;20712;-58
2022/05/03 03:44:13;;;;;;;21.38;17.02;;;9.00;99.90;;;;;;5069751;28;20052;-59
2022/05/03 03:46:39;;;;;;;20.30;16.88;;;9.00;99.90;;;;;;5069604;28;20135;-59
2022/05/03 03:49:05;;;;;;;20.60;15.75;;;9.00;99.90;;;;;;5069829;28;20131;-58
2022/05/03 03:51:32;;;;;;;25.98;17.58;;;9.00;99.90;;;;;;5069371;28;20459;-59
2022/05/03 03:53:58;;;;;;;23.50;16.88;;;9.00;99.90;;;;;;5070981;28;20119;-59
2022/05/03 03:56:25;;;;;;;19.95;16.60;;;9.10;99.90;;;;;;5069919;28;20384;-59
2022/05/03 03:58:52;;;;;;;18.95;16.23;;;8.90;99.90;;;;;;5070593;28;20046;-59
2022/05/03 04:01:18;;;;;;;22.38;16.77;;;9.10;99.90;;;;;;5070467;28;20044;-59
2022/05/03 04:03:45;;;;;;;21.15;16.45;;;9.10;99.90;;;;;;5070081;28;20403;-59
2022/05/03 04:06:11;;;;;;;23.75;16.33;;;9.10;99.90;;;;;;5069462;28;20055;-59
2022/05/03 04:08:36;;;;;;;21.00;16.27;;;9.10;99.90;;;;;;5068943;28;20044;-59
2022/05/03 04:11:18;;;;;;;21.38;16.63;;;9.10;99.90;;;;;;5052510;28;20142;-60
2022/05/03 04:13:45;;;;;;;22.13;17.20;;;9.10;99.90;;;;;;5068959;28;20052;-59
2022/05/03 04:16:11;;;;;;;21.70;17.15;;;9.10;99.90;;;;;;5069456;28;20048;-59
2022/05/03 04:18:46;;;;;;;22.13;18.17;;;9.10;99.90;;;;;;5070211;28;20049;-59
2022/05/03 04:21:17;;;;;;;18.65;16.45;;;9.10;99.90;;;;;;5070460;28;20371;-60
2022/05/03 04:23:46;;;;;;;23.92;17.25;;;9.10;99.90;;;;;;5070159;28;20398;-60
2022/05/03 04:26:12;;;;;;;22.00;18.20;;;9.00;99.90;;;;;;5069423;28;20043;-60
2022/05/03 04:28:39;;;;;;;22.15;17.42;;;9.10;99.90;;;;;;5070152;28;20437;-59
2022/05/03 04:31:05;;;;;;;19.92;17.08;;;9.10;99.90;;;;;;5070810;28;20048;-58
2022/05/03 04:33:31;;;;;;;21.30;16.75;;;9.10;99.90;;;;;;5070167;28;20040;-63
2022/05/03 04:35:57;;;;;;;22.45;16.60;;;9.10;99.90;;;;;;5069577;28;20180;-59
2022/05/03 04:38:22;;;;;;;22.00;17.58;;;9.10;99.90;;;;;;5070448;28;20440;-58
2022/05/03 04:40:48;;;;;;;22.88;17.55;;;9.10;99.90;;;;;;5052101;28;20098;-59
2022/05/03 04:43:14;;;;;;;20.52;17.30;;;9.10;99.90;;;;;;5069099;28;20123;-59
2022/05/03 04:45:39;;;;;;;21.77;17.55;;;9.20;99.90;;;;;;5068887;28;20040;-58
2022/05/03 04:48:06;;;;;;;22.67;17.33;;;9.10;99.90;;;;;;5052634;28;20131;-58
2022/05/03 04:50:31;;;;;;;23.02;18.38;;;9.20;99.90;;;;;;5071739;28;20045;-63
2022/05/03 04:52:57;;;;;;;22.25;17.77;;;9.20;99.90;;;;;;5072054;28;20068;-59
2022/05/03 04:55:23;;;;;;;24.30;18.40;;;9.20;99.90;;;;;;5073914;28;20501;-59
2022/05/03 04:57:50;;;;;;;24.05;18.33;;;9.20;99.90;;;;;;5073130;28;20052;-60
2022/05/03 05:00:16;;;;;;;24.05;18.58;;;9.20;99.90;;;;;;5073917;28;20056;-60
2022/05/03 05:02:42;;;;;;;25.15;18.67;;;9.30;99.90;;;;;;5073351;28;20119;-58
2022/05/03 05:05:08;;;;;;;23.90;18.50;;;9.30;99.90;;;;;;5073963;28;20127;-59
2022/05/03 05:07:34;;;;;;;24.63;19.13;;;9.30;99.90;;;;;;5073650;28;20044;-62
2022/05/03 05:12:43;;;;;;;28.48;20.98;;;9.30;99.90;;;;;;5072051;28;20052;-59
2022/05/03 05:15:10;;;;;;;25.77;19.77;;;9.40;99.90;;;;;;5072198;28;20051;-59
2022/05/03 05:17:35;;;;;;;31.88;23.13;;;9.40;99.90;;;;;;5073284;28;20045;-63
2022/05/03 05:20:02;;;;;;;31.55;23.02;;;9.40;99.90;;;;;;5055361;28;20062;-59
2022/05/03 05:22:27;;;;;;;32.08;24.02;;;9.40;99.90;;;;;;5073051;28;20142;-59
2022/05/03 05:24:53;;;;;;;34.53;24.25;;;9.40;99.90;;;;;;5071406;28;20088;-59
2022/05/03 05:27:19;;;;;;;30.25;23.75;;;9.40;99.90;;;;;;5072133;28;20343;-58
2022/05/03 05:29:45;;;;;;;32.92;24.08;;;9.40;99.90;;;;;;5071506;28;20160;-60
2022/05/03 05:32:10;;;;;;;32.10;23.92;;;9.40;99.90;;;;;;5071918;28;20091;-59
2022/05/03 05:34:36;;;;;;;30.20;23.70;;;9.40;99.90;;;;;;5073426;28;20036;-59
2022/05/03 05:37:02;;;;;;;31.17;22.95;;;9.40;99.90;;;;;;5071188;28;20378;-59
2022/05/03 05:39:28;;;;;;;35.08;23.65;;;9.40;99.90;;;;;;5073109;28;20055;-59
2022/05/03 05:41:55;;;;;;;35.70;25.60;;;9.40;99.90;;;;;;5071345;28;20059;-58
2022/05/03 05:44:21;;;;;;;33.25;24.48;;;9.40;99.90;;;;;;5073016;28;20494;-60
2022/05/03 05:46:47;;;;;;;35.97;25.60;;;9.40;99.90;;;;;;5072054;28;20090;-62
2022/05/03 05:49:25;;;;;;;35.55;26.10;;;9.40;99.90;;;;;;5072876;28;20084;-61
2022/05/03 05:54:44;;;;;;;35.13;24.65;;;9.40;99.90;;;;;;5043953;28;20050;-64
2022/05/03 05:57:11;;;;;;;33.78;24.00;;;9.40;99.90;;;;;;5055868;28;20055;-62
2022/05/03 05:59:37;;;;;;;37.65;25.23;;;9.40;99.90;;;;;;5072223;28;20075;-61
2022/05/03 06:02:04;;;;;;;35.53;24.35;;;9.40;99.90;;;;;;5053511;28;20274;-63
2022/05/03 06:04:30;;;;;;;32.75;24.52;;;9.40;99.90;;;;;;5072018;28;20059;-59
2022/05/03 06:06:56;;;;;;;34.00;23.75;;;9.40;99.90;;;;;;5072143;28;20561;-60
2022/05/03 06:09:22;;;;;;;30.08;22.42;;;9.50;99.90;;;;;;5072681;28;20053;-60
2022/05/03 06:11:48;;;;;;;27.92;19.98;;;9.40;99.90;;;;;;5071926;28;20435;-60
2022/05/03 06:14:14;;;;;;;29.75;20.67;;;9.40;99.90;;;;;;5072289;28;20040;-60
2022/05/03 06:16:55;;;;;;;25.90;17.92;;;9.40;99.90;;;;;;5072635;28;20378;-60
2022/05/03 06:19:21;;;;;;;24.23;15.60;;;9.40;99.90;;;;;;5072687;28;20055;-59
2022/05/03 06:21:47;;;;;;;23.20;10.77;;;9.40;99.90;;;;;;5072030;28;20482;-60
2022/05/03 06:24:14;;;;;;;23.33;9.18;;;9.40;99.90;;;;;;5071188;28;20056;-60
2022/05/03 06:26:40;;;;;;;22.80;7.75;;;9.40;99.90;;;;;;5072561;28;20090;-60
2022/05/03 06:29:08;;;;;;;16.48;6.55;;;9.30;99.90;;;;;;5071731;28;20044;-60
2022/05/03 06:31:38;;;;;;;14.13;5.70;;;9.30;99.90;;;;;;5070746;28;20056;-60
2022/05/03 06:34:07;;;;;;;15.60;5.30;;;9.30;99.90;;;;;;5071519;28;20044;-60
2022/05/03 06:36:35;;;;;;;14.02;4.90;;;9.30;99.90;;;;;;5053497;28;20052;-61
2022/05/03 06:39:05;;;;;;;10.43;4.78;;;9.20;99.90;;;;;;5071139;28;20127;-61
2022/05/03 06:41:31;;;;;;;14.63;4.88;;;9.20;99.90;;;;;;5054334;28;20044;-61
2022/05/03 06:43:58;;;;;;;13.95;5.20;;;9.20;99.90;;;;;;5071089;28;20049;-59
2022/05/03 06:46:28;;;;;;;18.70;5.15;;;9.20;99.90;;;;;;5070726;28;20053;-60
2022/05/03 06:48:54;;;;;;;14.65;5.30;;;9.20;99.90;;;;;;5071656;28;20088;-61
2022/05/03 06:51:20;;;;;;;11.32;4.60;;;9.10;99.90;;;;;;5071380;28;20052;-62
2022/05/03 06:53:47;;;;;;;16.77;5.50;;;9.20;99.90;;;;;;5070330;28;20056;-60
2022/05/03 06:56:14;;;;;;;18.35;5.70;;;9.10;99.90;;;;;;5070754;28;20244;-59
2022/05/03 06:58:40;;;;;;;16.33;5.35;;;9.20;99.90;;;;;;5070553;28;20091;-59
2022/05/03 07:01:11;;;;;;;12.15;5.45;;;9.10;99.90;;;;;;5070194;28;20046;-59
2022/05/03 07:03:37;;;;;;;19.52;5.68;;;9.10;99.90;;;;;;5070707;28;20498;-60
2022/05/03 07:06:04;;;;;;;14.88;5.72;;;9.20;99.90;;;;;;5070978;28;20494;-60
2022/05/03 07:08:31;;;;;;;19.30;6.53;;;9.20;99.90;;;;;;5071708;28;20041;-59
2022/05/03 07:10:56;;;;;;;16.20;6.05;;;9.20;99.90;;;;;;5070044;28;20071;-59
2022/05/03 07:13:26;;;;;;;19.35;6.18;;;9.20;99.90;;;;;;5071334;28;20045;-59
2022/05/03 07:15:52;;;;;;;21.30;6.05;;;9.20;99.90;;;;;;5071129;28;20464;-61
2022/05/03 07:23:47;;;;;;;15.90;5.50;;;9.30;99.90;;;;;;5071629;28;20121;-59
2022/05/03 07:26:12;;;;;;;17.20;5.53;;;9.40;99.90;;;;;;5069378;28;20355;-60
2022/05/03 07:28:38;;;;;;;21.02;6.38;;;9.30;99.90;;;;;;5069544;28;20053;-59
2022/05/03 07:31:04;;;;;;;17.08;6.28;;;9.40;99.90;;;;;;5070641;28;20049;-59
2022/05/03 07:33:31;;;;;;;16.92;5.45;;;9.40;99.90;;;;;;5071252;28;20049;-59
2022/05/03 07:35:56;;;;;;;25.17;6.00;;;9.50;99.90;;;;;;5070887;28;20048;-60
2022/05/03 07:38:22;;;;;;;21.20;5.63;;;9.50;99.90;;;;;;5071731;28;20055;-60
2022/05/03 07:40:48;;;;;;;17.33;4.95;;;9.60;99.90;;;;;;5071081;28;20063;-61
2022/05/03 07:43:14;;;;;;;20.80;5.57;;;9.60;99.90;;;;;;5070743;28;20302;-60
2022/05/03 07:45:39;;;;;;;16.40;5.40;;;9.70;99.90;;;;;;5071328;28;20045;-60
2022/05/03 07:48:05;;;;;;;15.63;4.90;;;9.80;99.90;;;;;;5071008;28;20052;-60
2022/05/03 07:50:32;;;;;;;19.27;5.10;;;9.80;99.90;;;;;;5070016;28;20239;-61
2022/05/03 07:52:58;;;;;;;17.95;5.22;;;9.90;99.90;;;;;;5070651;28;20048;-60
2022/05/03 07:55:24;;;;;;;19.35;5.65;;;9.90;99.90;;;;;;5070864;28;20053;-60
2022/05/03 07:57:50;;;;;;;19.52;4.43;;;9.90;99.90;;;;;;5070072;28;20052;-60
2022/05/03 08:00:16;;;;;;;12.20;4.43;;;9.90;99.90;;;;;;5053052;28;20044;-60
2022/05/03 08:02:42;;;;;;;15.75;4.20;;;10.00;99.90;;;;;;5069515;28;20044;-60
2022/05/03 08:05:10;;;;;;;12.82;3.90;;;10.00;99.90;;;;;;5053124;28;20050;-61
2022/05/03 08:07:36;;;;;;;17.23;4.45;;;10.00;99.90;;;;;;5070862;28;20448;-60
2022/05/03 08:10:04;;;;;;;14.45;4.75;;;10.00;99.90;;;;;;5070423;28;20040;-61
2022/05/03 08:12:30;;;;;;;17.38;5.55;;;10.10;99.90;;;;;;5070899;28;20109;-60
2022/05/03 08:14:56;;;;;;;18.95;4.82;;;10.20;99.90;;;;;;5069716;28;20478;-60
2022/05/03 08:17:25;;;;;;;16.33;4.82;;;10.20;99.90;;;;;;5070147;28;20127;-60
2022/05/03 08:19:51;;;;;;;24.88;5.40;;;10.20;99.90;;;;;;5071068;28;20101;-59
2022/05/03 08:22:16;;;;;;;15.55;3.97;;;10.20;99.90;;;;;;5070318;28;20123;-60
2022/05/03 08:24:43;;;;;;;14.13;4.20;;;10.20;99.90;;;;;;5071109;28;20049;-60
2022/05/03 08:27:08;;;;;;;16.70;4.28;;;10.10;99.90;;;;;;5056657;28;20048;-61
2022/05/03 08:29:34;;;;;;;22.08;4.68;;;10.20;99.90;;;;;;5074549;28;20126;-60
2022/05/03 08:32:00;;;;;;;12.40;3.92;;;10.20;99.90;;;;;;5074575;28;20135;-63
2022/05/03 08:34:27;;;;;;;22.42;4.25;;;10.20;99.90;;;;;;5074426;28;20045;-62
2022/05/03 08:42:21;;;;;;;13.85;3.88;;;10.40;99.90;;;;;;5073928;28;20052;-59
2022/05/03 08:44:47;;;;;;;14.85;4.00;;;10.40;99.90;;;;;;5074507;28;20132;-60
2022/05/03 08:47:17;;;;;;;14.50;3.35;;;10.40;99.90;;;;;;5073139;28;20056;-60
2022/05/03 08:50:07;;;;;;;15.95;4.18;;;10.40;99.90;;;;;;5073147;28;20061;-60
2022/05/03 08:52:39;;;;;;;14.05;3.78;;;10.40;99.90;;;;;;5072938;28;20123;-59
2022/05/03 08:55:06;;;;;;;15.10;4.68;;;10.50;99.90;;;;;;5073815;28;20135;-63
2022/05/03 08:57:32;;;;;;;18.00;4.70;;;10.50;99.90;;;;;;5074412;28;20433;-59
2022/05/03 08:59:58;;;;;;;18.38;4.65;;;10.50;99.90;;;;;;5072820;28;20048;-60
2022/05/03 09:02:24;;;;;;;16.35;3.88;;;10.60;99.90;;;;;;5073589;28;20040;-59
2022/05/03 09:04:49;;;;;;;11.65;3.85;;;10.70;99.90;;;;;;5072288;28;20127;-60
2022/05/03 09:07:24;;;;;;;14.35;3.60;;;10.80;99.90;;;;;;5072451;28;20082;-59
2022/05/03 09:09:54;;;;;;;10.95;3.47;;;10.80;99.90;;;;;;5072911;28;20402;-60
2022/05/03 09:12:27;;;;;;;13.02;3.30;;;10.90;99.90;;;;;;5072537;28;20048;-60
2022/05/03 09:14:56;;;;;;;10.25;3.00;;;11.00;99.90;;;;;;5072750;28;20048;-59
2022/05/03 09:17:46;;;;;;;12.48;3.20;;;11.20;99.90;;;;;;5073417;28;20040;-60
2022/05/03 09:25:47;;;;;;;;;;;11.40;99.90;;;;;;5073172;28;20045;-60
2022/05/03 09:28:13;;;;;;;9.00;2.75;;;11.40;99.90;;;;;;5072240;28;19927;-60
2022/05/03 09:30:50;;;;;;;9.30;2.90;;;11.50;99.90;;;;;;5072229;28;20044;-59
2022/05/03 09:33:22;;;;;;;12.88;2.85;;;11.50;99.90;;;;;;5073131;28;20048;-60
2022/05/03 09:35:49;;;;;;;11.27;2.65;;;11.70;99.90;;;;;;5073127;28;20083;-60
2022/05/03 09:38:15;;;;;;;7.00;2.80;;;11.80;99.90;;;;;;5055119;28;20055;-61
2022/05/03 09:40:47;;;;;;;11.82;3.00;;;11.80;99.90;;;;;;5055613;28;20049;-61
2022/05/03 09:43:14;;;;;;;14.68;3.63;;;11.90;99.90;;;;;;5071774;28;20098;-61
2022/05/03 09:45:40;;;;;;;8.30;2.67;;;12.00;99.90;;;;;;5071621;28;20327;-60
2022/05/03 09:48:06;;;;;;;7.18;2.70;;;12.10;99.90;;;;;;5071770;28;20560;-61
2022/05/03 09:50:32;;;;;;;7.05;2.45;;;12.20;99.90;;;;;;5072847;28;20086;-61
2022/05/03 09:53:07;;;;;;;11.48;3.20;;;12.40;99.90;;;;;;5073154;28;20591;-62
2022/05/03 09:55:36;;;;;;;10.40;3.17;;;12.70;99.90;;;;;;5072865;28;20063;-60
2022/05/03 09:58:04;;;;;;;7.90;2.38;;;12.80;99.90;;;;;;5073213;28;20045;-61
2022/05/03 10:00:33;;;;;;;9.52;3.20;;;12.90;99.90;;;;;;5072772;28;20060;-61
2022/05/03 10:03:01;;;;;;;27.88;4.25;;;12.90;99.90;;;;;;5073214;28;20044;-61
2022/05/03 10:05:28;;;;;;;12.73;2.65;;;12.90;99.90;;;;;;5072385;28;20047;-60
2022/05/03 10:07:54;;;;;;;9.35;2.85;;;12.80;99.90;;;;;;5038746;28;20056;-61
2022/05/03 10:10:21;;;;;;;7.57;2.50;;;12.90;99.90;;;;;;5072684;28;20048;-60
2022/05/03 10:12:49;;;;;;;13.35;2.95;;;13.10;99.90;;;;;;5072940;28;20052;-61
2022/05/03 10:20:35;;;;;;;8.45;2.65;;;13.20;99.90;;;;;;5072423;28;20079;-60
2022/05/03 10:20:55;;;;;;;8.57;2.58;;;13.40;99.90;;;;;;5072887;28;20107;-62
2022/05/03 10:23:30;;;;;;;11.38;2.78;;;13.50;99.90;;;;;;5071158;28;20044;-61
2022/05/03 10:26:08;;;;;;;9.43;2.53;;;13.60;99.90;;;;;;5071433;28;20047;-61
2022/05/03 10:29:08;;;;;;;10.27;2.30;;;13.40;99.90;;;;;;5072036;28;20255;-61
2022/05/03 10:32:08;;;;;;;8.20;2.60;;;13.50;99.90;;;;;;5072152;28;20044;-60
2022/05/03 10:34:42;;;;;;;8.80;2.45;;;13.40;99.90;;;;;;5070715;28;20060;-59
2022/05/03 10:37:13;;;;;;;10.40;3.00;;;13.20;99.90;;;;;;5072329;28;20048;-60
2022/05/03 10:39:46;;;;;;;5.97;1.95;;;13.10;99.90;;;;;;5072013;28;20041;-59
2022/05/03 10:42:13;;;;;;;6.38;2.22;;;12.90;99.90;;;;;;5072317;28;20127;-60
2022/05/03 10:44:55;;;;;;;9.27;2.38;;;12.90;99.90;;;;;;5072164;28;20128;-61
2022/05/03 10:47:47;;;;;;;6.35;2.53;;;13.10;99.90;;;;;;5053863;28;20127;-61
2022/05/03 10:50:15;;;;;;;9.00;1.90;;;13.30;99.90;;;;;;5071247;28;20463;-60
2022/05/03 10:52:55;;;;;;;11.95;2.50;;;13.30;99.90;;;;;;5072057;28;20402;-60
2022/05/03 10:55:23;;;;;;;6.82;2.20;;;13.40;99.90;;;;;;5069953;28;20056;-60
2022/05/03 10:58:20;;;;;;;8.70;2.22;;;13.70;99.90;;;;;;5070988;28;20051;-61
2022/05/03 11:01:19;;;;;;;9.30;2.45;;;13.70;99.90;;;;;;5070935;28;20131;-60
2022/05/03 11:03:48;;;;;;;5.78;2.20;;;13.50;99.90;;;;;;5070980;28;20048;-60
2022/05/03 11:06:23;;;;;;;8.32;2.13;;;13.20;99.90;;;;;;5070798;28;20131;-60
2022/05/03 11:11:38;;;;;;;8.52;2.20;;;13.30;99.90;;;;;;5071659;28;20044;-60
2022/05/03 11:14:26;;;;;;;9.18;2.10;;;13.30;99.90;;;;;;5071926;28;20044;-60
2022/05/03 11:17:09;;;;;;;4.88;2.03;;;13.20;99.90;;;;;;5071737;28;20072;-61
2022/05/03 11:19:46;;;;;;;10.63;2.30;;;13.30;99.90;;;;;;5071325;28;20123;-61
2022/05/03 11:22:13;;;;;;;8.77;2.58;;;13.50;99.90;;;;;;5071713;28;20113;-61
2022/05/03 11:24:44;;;;;;;7.70;2.30;;;13.50;99.90;;;;;;5070254;28;20445;-60
2022/05/03 11:27:11;;;;;;;5.10;2.13;;;13.40;99.90;;;;;;5070486;28;20051;-63
2022/05/03 11:29:41;;;;;;;8.18;2.00;;;13.40;99.80;;;;;;5069822;28;20064;-61
2022/05/03 11:32:08;;;;;;;7.18;2.35;;;13.40;99.90;;;;;;5071779;28;20053;-60
2022/05/03 11:34:34;;;;;;;8.23;2.50;;;13.30;99.90;;;;;;5070194;28;20048;-61
2022/05/03 11:37:01;;;;;;;7.22;2.25;;;13.40;99.90;;;;;;5071841;28;20052;-60
2022/05/03 11:39:28;;;;;;;9.38;2.47;;;13.40;99.90;;;;;;5053956;28;20056;-61
2022/05/03 11:41:54;;;;;;;9.75;2.25;;;13.40;99.90;;;;;;5070168;28;20079;-60
2022/05/03 11:44:20;;;;;;;7.15;2.30;;;13.40;99.90;;;;;;5071641;28;20033;-61
2022/05/03 11:46:48;;;;;;;7.28;2.22;;;13.60;99.90;;;;;;5069942;28;20045;-60
2022/05/03 11:49:16;;;;;;;6.55;2.20;;;13.70;99.80;;;;;;5070368;28;20044;-61
2022/05/03 11:57:34;;;;;;;4.95;1.92;;;13.70;99.60;;;;;;5069691;28;20405;-61
2022/05/03 12:00:01;;;;;;;6.90;2.00;;;13.60;99.50;;;;;;5072582;28;20500;-61
2022/05/03 12:02:43;;;;;;;8.07;2.45;;;13.50;99.90;;;;;;5073909;28;20056;-61
2022/05/03 12:05:18;;;;;;;7.80;2.28;;;13.50;99.30;;;;;;5073940;28;20071;-62
2022/05/03 12:07:46;;;;;;;7.25;2.50;;;13.50;99.80;;;;;;5074938;28;20398;-61
2022/05/03 12:10:19;;;;;;;12.77;2.30;;;13.60;99.60;;;;;;5073779;28;20041;-60
2022/05/03 12:12:47;;;;;;;6.18;2.13;;;13.60;99.30;;;;;;5073834;28;20402;-61
2022/05/03 12:15:13;;;;;;;5.93;2.13;;;13.70;98.90;;;;;;5075019;28;20051;-60
2022/05/03 12:17:56;;;;;;;7.35;2.35;;;13.70;98.50;;;;;;5073508;28;20045;-61
2022/05/03 12:20:22;;;;;;;9.15;2.45;;;13.70;99.00;;;;;;5075137;28;20145;-62
2022/05/03 12:23:30;;;;;;;11.00;2.38;;;13.70;98.70;;;;;;5073579;28;20344;-61
2022/05/03 12:25:57;;;;;;;6.88;2.38;;;13.60;99.40;;;;;;5072160;28;20044;-61
2022/05/03 12:28:37;;;;;;;7.32;2.50;;;13.60;99.70;;;;;;5074360;28;20061;-60
2022/05/03 12:31:04;;;;;;;8.52;2.45;;;13.50;99.30;;;;;;5073411;28;20083;-64
2022/05/03 12:33:30;;;;;;;9.48;2.40;;;13.60;99.50;;;;;;5073884;28;20102;-62
2022/05/03 12:35:56;;;;;;;19.45;3.78;;;13.60;99.50;;;;;;5074367;28;20350;-62
2022/05/03 12:38:24;;;;;;;14.27;3.00;;;13.70;99.70;;;;;;5074366;28;20099;-60
2022/05/03 12:40:55;;;;;;;7.85;2.17;;;13.80;99.60;;;;;;5073401;28;20498;-61
2022/05/03 12:43:26;;;;;;;14.10;3.28;;;14.00;99.90;;;;;;5074359;28;20041;-62
2022/05/03 12:46:25;;;;;;;6.88;2.30;;;13.90;98.90;;;;;;5073116;28;20158;-62
2022/05/03 12:48:51;;;;;;;9.60;2.35;;;13.70;98.90;;;;;;5072786;28;20227;-61
2022/05/03 12:51:17;;;;;;;7.53;2.60;;;13.60;99.10;;;;;;5072492;28;20048;-61
2022/05/03 12:53:47;;;;;;;8.10;2.33;;;13.40;99.30;;;;;;5072031;28;20104;-60
2022/05/03 12:58:58;;;;;;;24.63;4.13;;;13.50;99.40;;;;;;5072932;28;20053;-60
2022/05/03 13:01:24;;;;;;;12.35;3.20;;;13.30;99.40;;;;;;5039951;28;20059;-60
2022/05/03 13:03:50;;;;;;;12.63;2.83;;;13.30;99.70;;;;;;5072575;28;20048;-59
2022/05/03 13:06:17;;;;;;;12.90;3.20;;;13.40;99.70;;;;;;5074144;28;20120;-59
2022/05/03 13:08:44;;;;;;;9.65;2.50;;;13.60;99.00;;;;;;5073818;28;20082;-59
2022/05/03 13:11:10;;;;;;;16.10;3.30;;;13.70;99.00;;;;;;5071848;28;20064;-60
2022/05/03 13:13:38;;;;;;;9.15;2.63;;;13.80;98.90;;;;;;5072196;28;20054;-60
2022/05/03 13:16:04;;;;;;;9.70;2.42;;;13.90;99.10;;;;;;5073887;28;20063;-60
2022/05/03 13:18:30;;;;;;;8.98;2.42;;;13.80;98.80;;;;;;5074131;28;20070;-59
2022/05/03 13:20:56;;;;;;;11.00;2.80;;;13.80;99.40;;;;;;5073433;28;20542;-59
2022/05/03 13:23:22;;;;;;;8.27;2.70;;;13.80;99.10;;;;;;5073903;28;20052;-59
2022/05/03 13:25:48;;;;;;;8.18;2.28;;;13.50;98.40;;;;;;5072302;28;20053;-60
2022/05/03 13:28:15;;;;;;;8.95;2.25;;;13.60;98.50;;;;;;5072557;28;20091;-59
2022/05/03 13:30:42;;;;;;;7.97;2.30;;;13.50;98.70;;;;;;5073565;28;20040;-59
2022/05/03 13:33:08;;;;;;;7.30;2.20;;;13.40;98.80;;;;;;5073902;28;20044;-60
2022/05/03 13:41:02;;;;;;;7.50;2.72;;;13.40;99.40;;;;;;5072155;28;20131;-61
2022/05/03 13:43:28;;;;;;;11.77;2.47;;;13.60;99.10;;;;;;5072300;28;20128;-60
2022/05/03 13:45:55;;;;;;;7.25;2.55;;;13.80;98.80;;;;;;5071661;28;20036;-60
2022/05/03 13:48:21;;;;;;;11.52;3.15;;;13.70;98.40;;;;;;5073334;28;20458;-60
2022/05/03 13:50:46;;;;;;;12.65;3.03;;;13.50;98.30;;;;;;5071717;28;20076;-60
2022/05/03 13:53:12;;;;;;;13.93;2.95;;;13.20;98.60;;;;;;5073055;28;20052;-61